• Join FlightAware (Why Join?)
  • Login
  • US Flag 
11:47PM EST


 

Airport Tracker/Info


-or-


 

Live Flight TrackerFlight Track Log ✈ N53685 ✈ 21-Apr-2013 ✈ KSAT - MMAN / NTR

Flight Track Log - Related Links

Times and Time Zones

All times are in EDT time to prevent confusion due to time zone crossing. See the N53685 flight status page for this flight to view local times or setup timezone preferences in your user account.

Time Position Orientation Groundspeed Altitude Reporting Facility
EDT Latitude Longitude Course Direction KTS MPH feet Rate Location/Type
07:49PM 29.5247 -98.4636 153° Southeast 92 106 1,400  Level Houston Center
07:50PM 29.5047 -98.4517 153° Southeast 90 104 1,900 480 Climbing Houston Center
07:51PM 29.4978 -98.4469 149° Southeast 92 106 2,000 360 Climbing Houston Center
07:51PM 29.4783 -98.4381 158° South 106 122 2,300 360 Climbing Houston Center
07:52PM 29.4708 -98.4325 147° Southeast 104 120 2,400 360 Climbing Houston Center
07:52PM 29.4500 -98.4269 167° South 113 130 2,700 360 Climbing Houston Center
07:53PM 29.4422 -98.4322 211° Southwest 111 128 2,800 420 Climbing Houston Center
07:53PM 29.4267 -98.4467 219° Southwest 117 135 3,100 360 Climbing Houston Center
07:54PM 29.4172 -98.4589 228° Southwest 114 131 3,200 420 Climbing Houston Center
07:54PM 29.4017 -98.4736 220° Southwest 112 129 3,600 480 Climbing Houston Center
07:55PM 29.3967 -98.4831 239° Southwest 107 123 3,700 360 Climbing Houston Center
07:55PM 29.3783 -98.4933 206° Southwest 103 119 4,000 480 Climbing Houston Center
07:56PM 29.3686 -98.4972 199° South 102 117 4,200 360 Climbing Houston Center
07:56PM 29.3522 -98.5058 205° Southwest 107 123 4,400 360 Climbing Houston Center
07:57PM 29.3406 -98.5106 199° South 108 124 4,600 360 Climbing Houston Center
07:58PM 29.3106 -98.5233 200° South 112 129 5,000 360 Climbing Houston Center
07:58PM 29.2917 -98.5322 202° Southwest 113 130 5,200 360 Climbing Houston Center
07:59PM 29.2789 -98.5372 199° South 114 131 5,400 360 Climbing Houston Center
07:59PM 29.2614 -98.5456 203° Southwest 115 132 5,600 360 Climbing Houston Center
08:00PM 29.2494 -98.5514 203° Southwest 115 132 5,800 360 Climbing Houston Center
08:00PM 29.2311 -98.5586 199° South 115 132 6,000 360 Climbing Houston Center
08:01PM 29.2169 -98.5650 201° Southwest 115 132 6,200 360 Climbing Houston Center
08:01PM 29.2028 -98.5717 202° Southwest 116 133 6,400 360 Climbing Houston Center
08:02PM 29.1872 -98.5806 207° Southwest 117 135 6,600 300 Climbing Houston Center
08:03PM 29.1667 -98.5903 202° Southwest 118 136 6,800 360 Climbing Houston Center
08:03PM 29.1544 -98.5958 202° Southwest 118 136 7,000 360 Climbing Houston Center
08:04PM 29.1364 -98.6033 200° South 118 136 7,200 360 Climbing Houston Center
08:04PM 29.1228 -98.6086 199° South 121 139 7,400 300 Climbing Houston Center
08:05PM 29.1061 -98.6142 196° South 120 138 7,500 240 Climbing Houston Center
08:05PM 29.0906 -98.6208 201° Southwest 123 142 7,700 420 Climbing Houston Center
08:06PM 29.0578 -98.6361 202° Southwest 119 137 8,200 420 Climbing Houston Center
08:07PM 29.0272 -98.6506 202° Southwest 118 136 8,600 360 Climbing Houston Center
08:08PM 28.9953 -98.6647 201° Southwest 116 133 9,000 360 Climbing Houston Center
08:09PM 28.9647 -98.6781 201° Southwest 116 133 9,400 360 Climbing Houston Center
08:10PM 28.9347 -98.6908 200° South 116 133 9,800 300 Climbing Houston Center
08:11PM 28.9033 -98.7044 201° Southwest 118 136 10,100 60 Climbing Houston Center
08:12PM 28.8667 -98.7222 203° Southwest 132 152 10,000 -60 Descending Houston Center
08:13PM 28.8319 -98.7383 202° Southwest 126 145 10,000  Level Houston Center
08:14PM 28.7994 -98.7533 202° Southwest 124 143 10,000  Level Houston Center
08:15PM 28.7678 -98.7675 201° Southwest 121 139 10,000  Level Houston Center
08:16PM 28.7336 -98.7847 204° Southwest 123 142 10,000  Level Houston Center
08:17PM 28.7022 -98.7994 202° Southwest 122 140 10,000  Level Houston Center
08:19PM 28.6711 -98.8156 204° Southwest 131 151 10,000  Level Houston Center
08:20PM 28.6389 -98.8319 204° Southwest 128 147 10,000  Level Houston Center
08:21PM 28.6069 -98.8472 203° Southwest 126 145 10,100  Climbing Houston Center
08:22PM 28.5747 -98.8647 205° Southwest 129 148 10,100  Level Houston Center
08:23PM 28.5356 -98.8850 204° Southwest 130 150 10,100  Level Houston Center
08:24PM 28.5031 -98.9011 204° Southwest 129 148 10,100  Level Houston Center
08:25PM 28.4706 -98.9183 205° Southwest 129 148 10,100  Level Houston Center
08:26PM 28.4375 -98.9336 202° Southwest 128 147 10,100  Level Houston Center
08:27PM 28.4047 -98.9519 206° Southwest 130 150 10,100  Level Houston Center
08:28PM 28.3700 -98.9683 203° Southwest 132 152 10,100  Level Houston Center
08:29PM 28.3297 -98.9894 205° Southwest 134 154 10,100  Level Houston Center
08:30PM 28.2956 -99.0061 203° Southwest 134 154 10,100  Level Houston Center
08:31PM 28.2614 -99.0208 201° Southwest 133 153 10,100  Level Houston Center
08:32PM 28.2281 -99.0389 206° Southwest 132 152 10,100  Level Houston Center
08:33PM 28.1936 -99.0558 203° Southwest 134 154 10,100  Level Houston Center
08:34PM 28.1617 -99.0736 206° Southwest 131 151 10,100  Level Houston Center
08:35PM 28.1233 -99.0953 206° Southwest 129 148 10,100  Level Houston Center
08:36PM 28.0908 -99.1133 206° Southwest 129 148 10,100  Level Houston Center
08:37PM 28.0589 -99.1314 207° Southwest 129 148 10,100  Level Houston Center
08:38PM 28.0275 -99.1500 208° Southwest 128 147 10,100  Level Houston Center
08:39PM 27.9936 -99.1650 201° Southwest 129 148 10,100  Level Houston Center
08:40PM 27.9603 -99.1803 202° Southwest 130 150 10,100  Level Houston Center
08:41PM 27.9203 -99.1997 203° Southwest 131 151 10,100  Level Houston Center
08:42PM 27.8872 -99.2156 203° Southwest 129 148 10,100  Level Houston Center
08:43PM 27.8547 -99.2317 204° Southwest 128 147 10,100  Level Houston Center
08:44PM 27.8192 -99.2478 202° Southwest 132 152 10,100  Level Houston Center
08:45PM 27.7853 -99.2653 205° Southwest 134 154 10,100  Level Houston Center
08:46PM 27.7522 -99.2828 205° Southwest 133 153 10,100  Level Houston Center
08:47PM 27.7192 -99.3003 205° Southwest 132 152 10,100  Level Houston Center
08:48PM 27.6797 -99.3211 205° Southwest 132 152 10,100  Level Houston Center
08:49PM 27.6467 -99.3381 204° Southwest 131 151 10,100  Level Houston Center
08:50PM 27.6139 -99.3556 205° Southwest 131 151 10,100  Level Houston Center
08:51PM 27.5817 -99.3733 206° Southwest 130 150 10,100  Level Houston Center
08:53PM 27.5486 -99.3911 205° Southwest 130 150 10,100  Level Houston Center
08:54PM 27.5156 -99.4081 204° Southwest 131 151 10,100  Level Houston Center
08:55PM 27.4756 -99.4289 205° Southwest 132 152 10,100  Level Houston Center
08:56PM 27.4450 -99.4500 212° Southwest 130 150 10,100  Level Houston Center
08:57PM 27.4197 -99.4772 224° Southwest 129 148 10,100  Level Houston Center
08:58PM 27.4006 -99.5097 236° Southwest 127 146 10,100  Level Houston Center
09:00PM 27.3907 -99.5751 196° South  Level FlightAware Approximate
09:07PM 27.1435 -99.6554 196° South  Level FlightAware Approximate
09:08PM 27.1082 -99.6668 196° South  Level FlightAware Approximate
09:09PM 27.0729 -99.6783 196° South  Level FlightAware Approximate
09:10PM 27.0375 -99.6897 196° South  Level FlightAware Approximate
09:11PM 27.0022 -99.7011 196° South  Level FlightAware Approximate
09:12PM 26.9669 -99.7125 196° South  Level FlightAware Approximate
09:13PM 26.9316 -99.7239 196° South  Level FlightAware Approximate
09:14PM 26.8963 -99.7353 196° South  Level FlightAware Approximate
09:15PM 26.8609 -99.7467 196° South  Level FlightAware Approximate
09:16PM 26.8256 -99.7581 196° South  Level FlightAware Approximate